sensor_id;sensor_type;location;lat;lon;timestamp;P1;durP1;ratioP1;P2;durP2;ratioP2
19985;SDS011;10154;52.474;10.768;2023-06-10T00:00:12;11.38;;;3.28;;
19985;SDS011;10154;52.474;10.768;2023-06-10T00:06:01;12.25;;;3.10;;
19985;SDS011;10154;52.474;10.768;2023-06-10T00:08:27;8.60;;;3.13;;
19985;SDS011;10154;52.474;10.768;2023-06-10T00:10:54;7.47;;;2.67;;
19985;SDS011;10154;52.474;10.768;2023-06-10T00:13:19;7.60;;;2.97;;
19985;SDS011;10154;52.474;10.768;2023-06-10T00:15:45;9.65;;;3.00;;
19985;SDS011;10154;52.474;10.768;2023-06-10T00:18:10;9.60;;;3.05;;
19985;SDS011;10154;52.474;10.768;2023-06-10T00:20:36;12.90;;;3.28;;
19985;SDS011;10154;52.474;10.768;2023-06-10T00:23:02;10.88;;;3.25;;
19985;SDS011;10154;52.474;10.768;2023-06-10T00:25:28;7.35;;;2.90;;
19985;SDS011;10154;52.474;10.768;2023-06-10T00:27:53;9.55;;;2.90;;
19985;SDS011;10154;52.474;10.768;2023-06-10T00:30:19;7.85;;;2.97;;
19985;SDS011;10154;52.474;10.768;2023-06-10T00:35:16;13.98;;;3.00;;
19985;SDS011;10154;52.474;10.768;2023-06-10T00:37:41;8.43;;;2.95;;
19985;SDS011;10154;52.474;10.768;2023-06-10T00:40:07;8.90;;;3.35;;
19985;SDS011;10154;52.474;10.768;2023-06-10T00:42:36;7.95;;;3.03;;
19985;SDS011;10154;52.474;10.768;2023-06-10T00:45:01;9.95;;;3.15;;
19985;SDS011;10154;52.474;10.768;2023-06-10T00:47:27;6.22;;;2.83;;
19985;SDS011;10154;52.474;10.768;2023-06-10T00:49:52;9.75;;;3.05;;
19985;SDS011;10154;52.474;10.768;2023-06-10T00:52:18;8.65;;;2.92;;
19985;SDS011;10154;52.474;10.768;2023-06-10T00:54:47;7.13;;;3.05;;
19985;SDS011;10154;52.474;10.768;2023-06-10T00:57:13;7.18;;;3.17;;
19985;SDS011;10154;52.474;10.768;2023-06-10T00:59:39;10.25;;;3.35;;
19985;SDS011;10154;52.474;10.768;2023-06-10T01:02:06;9.60;;;2.90;;
19985;SDS011;10154;52.474;10.768;2023-06-10T01:04:32;8.90;;;3.35;;
19985;SDS011;10154;52.474;10.768;2023-06-10T01:09:49;9.50;;;3.28;;
19985;SDS011;10154;52.474;10.768;2023-06-10T01:12:26;10.90;;;3.30;;
19985;SDS011;10154;52.474;10.768;2023-06-10T01:14:56;9.05;;;3.10;;
19985;SDS011;10154;52.474;10.768;2023-06-10T01:17:23;11.85;;;3.80;;
19985;SDS011;10154;52.474;10.768;2023-06-10T01:19:55;8.40;;;3.17;;
19985;SDS011;10154;52.474;10.768;2023-06-10T01:22:22;7.10;;;2.88;;
19985;SDS011;10154;52.474;10.768;2023-06-10T01:24:49;6.93;;;3.08;;
19985;SDS011;10154;52.474;10.768;2023-06-10T01:27:15;7.90;;;3.20;;
19985;SDS011;10154;52.474;10.768;2023-06-10T01:29:50;8.13;;;3.33;;
19985;SDS011;10154;52.474;10.768;2023-06-10T01:32:27;9.93;;;3.20;;
19985;SDS011;10154;52.474;10.768;2023-06-10T01:34:56;12.18;;;3.42;;
19985;SDS011;10154;52.474;10.768;2023-06-10T01:37:22;11.00;;;3.28;;
19985;SDS011;10154;52.474;10.768;2023-06-10T01:39:50;13.18;;;3.58;;
19985;SDS011;10154;52.474;10.768;2023-06-10T01:42:15;10.20;;;3.70;;
19985;SDS011;10154;52.474;10.768;2023-06-10T01:44:41;12.55;;;3.65;;
19985;SDS011;10154;52.474;10.768;2023-06-10T01:47:07;11.55;;;3.50;;
19985;SDS011;10154;52.474;10.768;2023-06-10T01:49:32;13.10;;;3.67;;
19985;SDS011;10154;52.474;10.768;2023-06-10T01:51:58;7.80;;;3.08;;
19985;SDS011;10154;52.474;10.768;2023-06-10T01:54:23;11.02;;;3.33;;
19985;SDS011;10154;52.474;10.768;2023-06-10T01:56:49;7.30;;;3.20;;
19985;SDS011;10154;52.474;10.768;2023-06-10T01:59:14;10.88;;;3.47;;
19985;SDS011;10154;52.474;10.768;2023-06-10T02:01:40;7.90;;;3.40;;
19985;SDS011;10154;52.474;10.768;2023-06-10T02:04:06;6.97;;;3.13;;
19985;SDS011;10154;52.474;10.768;2023-06-10T02:06:31;12.88;;;3.53;;
19985;SDS011;10154;52.474;10.768;2023-06-10T02:08:56;10.27;;;3.10;;
19985;SDS011;10154;52.474;10.768;2023-06-10T02:11:22;12.82;;;3.60;;
19985;SDS011;10154;52.474;10.768;2023-06-10T02:13:47;6.63;;;3.10;;
19985;SDS011;10154;52.474;10.768;2023-06-10T02:16:13;9.80;;;3.10;;
19985;SDS011;10154;52.474;10.768;2023-06-10T02:18:39;10.57;;;3.63;;
19985;SDS011;10154;52.474;10.768;2023-06-10T02:21:08;10.02;;;3.63;;
19985;SDS011;10154;52.474;10.768;2023-06-10T02:23:33;9.48;;;3.70;;
19985;SDS011;10154;52.474;10.768;2023-06-10T02:25:58;13.43;;;3.55;;
19985;SDS011;10154;52.474;10.768;2023-06-10T02:28:24;8.48;;;3.38;;
19985;SDS011;10154;52.474;10.768;2023-06-10T02:30:50;8.43;;;3.50;;
19985;SDS011;10154;52.474;10.768;2023-06-10T02:33:17;10.68;;;3.63;;
19985;SDS011;10154;52.474;10.768;2023-06-10T02:35:42;10.68;;;3.63;;
19985;SDS011;10154;52.474;10.768;2023-06-10T02:38:08;7.75;;;3.40;;
19985;SDS011;10154;52.474;10.768;2023-06-10T02:40:33;12.05;;;3.78;;
19985;SDS011;10154;52.474;10.768;2023-06-10T02:42:59;9.07;;;3.70;;
19985;SDS011;10154;52.474;10.768;2023-06-10T02:45:24;13.40;;;3.53;;
19985;SDS011;10154;52.474;10.768;2023-06-10T02:47:50;10.75;;;4.15;;
19985;SDS011;10154;52.474;10.768;2023-06-10T02:50:15;10.35;;;3.88;;
19985;SDS011;10154;52.474;10.768;2023-06-10T02:52:41;10.68;;;3.90;;
19985;SDS011;10154;52.474;10.768;2023-06-10T02:55:06;8.00;;;3.70;;
19985;SDS011;10154;52.474;10.768;2023-06-10T02:57:32;10.57;;;3.90;;
19985;SDS011;10154;52.474;10.768;2023-06-10T02:59:57;9.77;;;3.60;;
19985;SDS011;10154;52.474;10.768;2023-06-10T03:02:24;10.45;;;3.95;;
19985;SDS011;10154;52.474;10.768;2023-06-10T03:04:54;8.90;;;3.70;;
19985;SDS011;10154;52.474;10.768;2023-06-10T03:07:23;8.68;;;3.63;;
19985;SDS011;10154;52.474;10.768;2023-06-10T03:09:48;7.60;;;3.17;;
19985;SDS011;10154;52.474;10.768;2023-06-10T03:12:15;11.05;;;3.58;;
19985;SDS011;10154;52.474;10.768;2023-06-10T03:14:41;8.47;;;3.50;;
19985;SDS011;10154;52.474;10.768;2023-06-10T03:17:06;8.00;;;3.67;;
19985;SDS011;10154;52.474;10.768;2023-06-10T03:19:33;10.05;;;3.60;;
19985;SDS011;10154;52.474;10.768;2023-06-10T03:22:09;9.73;;;3.80;;
19985;SDS011;10154;52.474;10.768;2023-06-10T03:24:35;13.18;;;4.00;;
19985;SDS011;10154;52.474;10.768;2023-06-10T03:27:02;9.43;;;4.07;;
19985;SDS011;10154;52.474;10.768;2023-06-10T03:29:30;13.03;;;3.73;;
19985;SDS011;10154;52.474;10.768;2023-06-10T03:31:55;11.23;;;4.10;;
19985;SDS011;10154;52.474;10.768;2023-06-10T03:34:21;10.73;;;4.37;;
19985;SDS011;10154;52.474;10.768;2023-06-10T03:36:48;10.33;;;4.03;;
19985;SDS011;10154;52.474;10.768;2023-06-10T03:39:14;9.93;;;4.57;;
19985;SDS011;10154;52.474;10.768;2023-06-10T03:41:39;15.60;;;4.80;;
19985;SDS011;10154;52.474;10.768;2023-06-10T03:44:04;8.80;;;3.90;;
19985;SDS011;10154;52.474;10.768;2023-06-10T03:46:30;11.10;;;4.23;;
19985;SDS011;10154;52.474;10.768;2023-06-10T03:48:55;8.63;;;4.57;;
19985;SDS011;10154;52.474;10.768;2023-06-10T03:51:21;10.73;;;4.70;;
19985;SDS011;10154;52.474;10.768;2023-06-10T03:53:46;10.60;;;4.77;;
19985;SDS011;10154;52.474;10.768;2023-06-10T03:56:11;10.57;;;4.80;;
19985;SDS011;10154;52.474;10.768;2023-06-10T03:58:37;8.97;;;4.73;;
19985;SDS011;10154;52.474;10.768;2023-06-10T04:01:02;11.07;;;4.90;;
19985;SDS011;10154;52.474;10.768;2023-06-10T04:03:28;10.63;;;5.05;;
19985;SDS011;10154;52.474;10.768;2023-06-10T04:05:53;12.68;;;5.03;;
19985;SDS011;10154;52.474;10.768;2023-06-10T04:08:19;13.55;;;5.55;;
19985;SDS011;10154;52.474;10.768;2023-06-10T04:10:45;10.80;;;4.77;;
19985;SDS011;10154;52.474;10.768;2023-06-10T04:13:11;12.30;;;4.45;;
19985;SDS011;10154;52.474;10.768;2023-06-10T04:15:36;10.93;;;5.35;;
19985;SDS011;10154;52.474;10.768;2023-06-10T04:18:01;9.60;;;4.38;;
19985;SDS011;10154;52.474;10.768;2023-06-10T04:20:27;9.98;;;4.70;;
19985;SDS011;10154;52.474;10.768;2023-06-10T04:22:53;16.23;;;5.40;;
19985;SDS011;10154;52.474;10.768;2023-06-10T04:25:18;12.50;;;5.50;;
19985;SDS011;10154;52.474;10.768;2023-06-10T04:27:44;12.95;;;5.30;;
19985;SDS011;10154;52.474;10.768;2023-06-10T04:30:09;10.10;;;5.32;;
19985;SDS011;10154;52.474;10.768;2023-06-10T04:32:35;12.73;;;4.43;;
19985;SDS011;10154;52.474;10.768;2023-06-10T04:35:00;11.85;;;4.90;;
19985;SDS011;10154;52.474;10.768;2023-06-10T04:37:26;14.98;;;4.88;;
19985;SDS011;10154;52.474;10.768;2023-06-10T04:39:54;10.35;;;4.25;;
19985;SDS011;10154;52.474;10.768;2023-06-10T04:42:19;12.02;;;4.32;;
19985;SDS011;10154;52.474;10.768;2023-06-10T04:44:44;10.05;;;4.07;;
19985;SDS011;10154;52.474;10.768;2023-06-10T04:47:10;11.65;;;4.80;;
19985;SDS011;10154;52.474;10.768;2023-06-10T04:49:35;13.38;;;4.28;;
19985;SDS011;10154;52.474;10.768;2023-06-10T04:52:01;12.93;;;4.88;;
19985;SDS011;10154;52.474;10.768;2023-06-10T04:54:29;16.15;;;4.50;;
19985;SDS011;10154;52.474;10.768;2023-06-10T04:56:55;10.88;;;4.15;;
19985;SDS011;10154;52.474;10.768;2023-06-10T04:59:21;11.13;;;4.20;;
19985;SDS011;10154;52.474;10.768;2023-06-10T05:01:46;12.43;;;3.77;;
19985;SDS011;10154;52.474;10.768;2023-06-10T05:04:11;10.37;;;4.00;;
19985;SDS011;10154;52.474;10.768;2023-06-10T05:06:37;13.27;;;4.00;;
19985;SDS011;10154;52.474;10.768;2023-06-10T05:09:02;16.25;;;3.90;;
19985;SDS011;10154;52.474;10.768;2023-06-10T05:11:28;11.77;;;4.20;;
19985;SDS011;10154;52.474;10.768;2023-06-10T05:13:53;13.63;;;3.93;;
19985;SDS011;10154;52.474;10.768;2023-06-10T05:16:18;14.13;;;4.00;;
19985;SDS011;10154;52.474;10.768;2023-06-10T05:18:44;9.97;;;4.30;;
19985;SDS011;10154;52.474;10.768;2023-06-10T05:21:09;10.60;;;3.83;;
19985;SDS011;10154;52.474;10.768;2023-06-10T05:23:35;11.80;;;4.07;;
19985;SDS011;10154;52.474;10.768;2023-06-10T05:26:00;13.13;;;3.70;;
19985;SDS011;10154;52.474;10.768;2023-06-10T05:28:25;13.97;;;3.77;;
19985;SDS011;10154;52.474;10.768;2023-06-10T05:30:51;10.33;;;3.70;;
19985;SDS011;10154;52.474;10.768;2023-06-10T05:33:16;11.27;;;3.73;;
19985;SDS011;10154;52.474;10.768;2023-06-10T05:35:42;11.63;;;3.60;;
19985;SDS011;10154;52.474;10.768;2023-06-10T05:38:07;12.20;;;3.70;;
19985;SDS011;10154;52.474;10.768;2023-06-10T05:40:33;14.07;;;4.20;;
19985;SDS011;10154;52.474;10.768;2023-06-10T05:42:58;10.93;;;3.67;;
19985;SDS011;10154;52.474;10.768;2023-06-10T05:45:23;12.65;;;3.75;;
19985;SDS011;10154;52.474;10.768;2023-06-10T05:47:49;8.23;;;3.70;;
19985;SDS011;10154;52.474;10.768;2023-06-10T05:50:14;11.35;;;3.67;;
19985;SDS011;10154;52.474;10.768;2023-06-10T05:52:40;12.40;;;3.50;;
19985;SDS011;10154;52.474;10.768;2023-06-10T05:55:05;8.88;;;3.00;;
19985;SDS011;10154;52.474;10.768;2023-06-10T05:57:31;6.45;;;3.00;;
19985;SDS011;10154;52.474;10.768;2023-06-10T05:59:57;11.23;;;3.78;;
19985;SDS011;10154;52.474;10.768;2023-06-10T06:02:22;11.82;;;3.17;;
19985;SDS011;10154;52.474;10.768;2023-06-10T06:04:47;11.95;;;3.10;;
19985;SDS011;10154;52.474;10.768;2023-06-10T06:07:13;8.20;;;3.33;;
19985;SDS011;10154;52.474;10.768;2023-06-10T06:09:38;11.23;;;3.30;;
19985;SDS011;10154;52.474;10.768;2023-06-10T06:12:04;11.88;;;3.25;;
19985;SDS011;10154;52.474;10.768;2023-06-10T06:14:31;10.82;;;3.67;;
19985;SDS011;10154;52.474;10.768;2023-06-10T06:16:57;13.73;;;3.40;;
19985;SDS011;10154;52.474;10.768;2023-06-10T06:19:22;12.48;;;3.10;;
19985;SDS011;10154;52.474;10.768;2023-06-10T06:21:48;7.55;;;3.03;;
19985;SDS011;10154;52.474;10.768;2023-06-10T06:24:13;15.30;;;4.07;;
19985;SDS011;10154;52.474;10.768;2023-06-10T06:26:40;12.23;;;3.58;;
19985;SDS011;10154;52.474;10.768;2023-06-10T06:29:05;9.38;;;3.88;;
19985;SDS011;10154;52.474;10.768;2023-06-10T06:31:30;11.07;;;3.60;;
19985;SDS011;10154;52.474;10.768;2023-06-10T06:33:56;15.05;;;3.30;;
19985;SDS011;10154;52.474;10.768;2023-06-10T06:36:21;14.13;;;4.10;;
19985;SDS011;10154;52.474;10.768;2023-06-10T06:38:47;11.25;;;3.58;;
19985;SDS011;10154;52.474;10.768;2023-06-10T06:41:12;10.13;;;3.20;;
19985;SDS011;10154;52.474;10.768;2023-06-10T06:43:37;14.00;;;3.63;;
19985;SDS011;10154;52.474;10.768;2023-06-10T06:46:03;10.25;;;3.35;;
19985;SDS011;10154;52.474;10.768;2023-06-10T06:48:28;15.45;;;3.83;;
19985;SDS011;10154;52.474;10.768;2023-06-10T06:50:54;16.38;;;4.55;;
19985;SDS011;10154;52.474;10.768;2023-06-10T06:53:21;12.52;;;3.35;;
19985;SDS011;10154;52.474;10.768;2023-06-10T06:55:46;10.85;;;3.30;;
19985;SDS011;10154;52.474;10.768;2023-06-10T06:58:12;13.13;;;3.97;;
19985;SDS011;10154;52.474;10.768;2023-06-10T07:00:37;9.73;;;3.50;;
19985;SDS011;10154;52.474;10.768;2023-06-10T07:03:03;13.13;;;3.53;;
19985;SDS011;10154;52.474;10.768;2023-06-10T07:05:28;12.43;;;3.38;;
19985;SDS011;10154;52.474;10.768;2023-06-10T07:07:53;8.50;;;3.47;;
19985;SDS011;10154;52.474;10.768;2023-06-10T07:10:21;11.88;;;3.47;;
19985;SDS011;10154;52.474;10.768;2023-06-10T07:12:48;10.00;;;3.17;;
19985;SDS011;10154;52.474;10.768;2023-06-10T07:15:13;11.10;;;3.90;;
19985;SDS011;10154;52.474;10.768;2023-06-10T07:17:38;12.27;;;3.40;;
19985;SDS011;10154;52.474;10.768;2023-06-10T07:20:04;16.67;;;4.45;;
19985;SDS011;10154;52.474;10.768;2023-06-10T07:22:30;14.02;;;3.80;;
19985;SDS011;10154;52.474;10.768;2023-06-10T07:24:55;11.23;;;3.55;;
19985;SDS011;10154;52.474;10.768;2023-06-10T07:27:21;14.07;;;3.92;;
19985;SDS011;10154;52.474;10.768;2023-06-10T07:29:46;11.60;;;3.83;;
19985;SDS011;10154;52.474;10.768;2023-06-10T07:32:12;11.07;;;3.72;;
19985;SDS011;10154;52.474;10.768;2023-06-10T07:34:37;11.10;;;4.30;;
19985;SDS011;10154;52.474;10.768;2023-06-10T07:37:02;10.50;;;3.95;;
19985;SDS011;10154;52.474;10.768;2023-06-10T07:39:28;10.82;;;3.72;;
19985;SDS011;10154;52.474;10.768;2023-06-10T07:41:53;8.90;;;3.65;;
19985;SDS011;10154;52.474;10.768;2023-06-10T07:44:20;12.02;;;3.83;;
19985;SDS011;10154;52.474;10.768;2023-06-10T07:46:46;10.82;;;4.03;;
19985;SDS011;10154;52.474;10.768;2023-06-10T07:49:11;11.85;;;3.90;;
19985;SDS011;10154;52.474;10.768;2023-06-10T07:51:36;11.40;;;3.85;;
19985;SDS011;10154;52.474;10.768;2023-06-10T07:54:02;13.05;;;3.80;;
19985;SDS011;10154;52.474;10.768;2023-06-10T07:56:28;12.07;;;4.05;;
19985;SDS011;10154;52.474;10.768;2023-06-10T07:58:53;10.55;;;4.00;;
19985;SDS011;10154;52.474;10.768;2023-06-10T08:01:18;9.02;;;3.72;;
19985;SDS011;10154;52.474;10.768;2023-06-10T08:03:44;8.77;;;3.78;;
19985;SDS011;10154;52.474;10.768;2023-06-10T08:06:09;9.93;;;3.78;;
19985;SDS011;10154;52.474;10.768;2023-06-10T08:08:36;11.60;;;3.90;;
19985;SDS011;10154;52.474;10.768;2023-06-10T08:11:06;10.63;;;4.28;;
19985;SDS011;10154;52.474;10.768;2023-06-10T08:13:32;11.65;;;3.38;;
19985;SDS011;10154;52.474;10.768;2023-06-10T08:15:58;13.10;;;3.80;;
19985;SDS011;10154;52.474;10.768;2023-06-10T08:18:23;9.13;;;3.47;;
19985;SDS011;10154;52.474;10.768;2023-06-10T08:20:48;12.38;;;3.85;;
19985;SDS011;10154;52.474;10.768;2023-06-10T08:23:14;10.63;;;3.70;;
19985;SDS011;10154;52.474;10.768;2023-06-10T08:25:39;8.18;;;3.42;;
19985;SDS011;10154;52.474;10.768;2023-06-10T08:28:05;12.43;;;3.95;;
19985;SDS011;10154;52.474;10.768;2023-06-10T08:30:30;9.32;;;3.97;;
19985;SDS011;10154;52.474;10.768;2023-06-10T08:32:55;12.60;;;3.80;;
19985;SDS011;10154;52.474;10.768;2023-06-10T08:35:21;10.25;;;3.72;;
19985;SDS011;10154;52.474;10.768;2023-06-10T08:37:46;11.40;;;3.75;;
19985;SDS011;10154;52.474;10.768;2023-06-10T08:40:12;10.32;;;3.50;;
19985;SDS011;10154;52.474;10.768;2023-06-10T08:42:39;7.80;;;3.53;;
19985;SDS011;10154;52.474;10.768;2023-06-10T08:45:05;12.93;;;3.97;;
19985;SDS011;10154;52.474;10.768;2023-06-10T08:47:33;7.75;;;3.67;;
19985;SDS011;10154;52.474;10.768;2023-06-10T08:50:01;7.43;;;3.75;;
19985;SDS011;10154;52.474;10.768;2023-06-10T08:52:29;7.47;;;3.53;;
19985;SDS011;10154;52.474;10.768;2023-06-10T08:55:12;9.50;;;3.90;;
19985;SDS011;10154;52.474;10.768;2023-06-10T08:57:40;8.57;;;4.25;;
19985;SDS011;10154;52.474;10.768;2023-06-10T09:00:07;8.57;;;3.95;;
19985;SDS011;10154;52.474;10.768;2023-06-10T09:02:33;7.03;;;4.00;;
19985;SDS011;10154;52.474;10.768;2023-06-10T09:05:00;11.88;;;4.88;;
19985;SDS011;10154;52.474;10.768;2023-06-10T09:07:26;12.00;;;4.47;;
19985;SDS011;10154;52.474;10.768;2023-06-10T09:09:51;7.95;;;4.18;;
19985;SDS011;10154;52.474;10.768;2023-06-10T09:12:18;11.13;;;4.93;;
19985;SDS011;10154;52.474;10.768;2023-06-10T09:14:44;9.43;;;4.28;;
19985;SDS011;10154;52.474;10.768;2023-06-10T09:17:10;9.05;;;4.45;;
19985;SDS011;10154;52.474;10.768;2023-06-10T09:19:35;9.95;;;4.60;;
19985;SDS011;10154;52.474;10.768;2023-06-10T09:22:02;7.60;;;4.25;;
19985;SDS011;10154;52.474;10.768;2023-06-10T09:24:27;9.63;;;4.32;;
19985;SDS011;10154;52.474;10.768;2023-06-10T09:27:11;10.85;;;4.10;;
19985;SDS011;10154;52.474;10.768;2023-06-10T09:32:17;7.35;;;3.95;;
19985;SDS011;10154;52.474;10.768;2023-06-10T09:34:43;9.35;;;4.43;;
19985;SDS011;10154;52.474;10.768;2023-06-10T09:37:09;7.07;;;4.45;;
19985;SDS011;10154;52.474;10.768;2023-06-10T09:39:37;7.97;;;4.65;;
19985;SDS011;10154;52.474;10.768;2023-06-10T09:42:10;8.05;;;4.68;;
19985;SDS011;10154;52.474;10.768;2023-06-10T09:44:40;6.75;;;4.45;;
19985;SDS011;10154;52.474;10.768;2023-06-10T09:47:06;8.70;;;4.43;;
19985;SDS011;10154;52.474;10.768;2023-06-10T09:49:31;5.75;;;4.25;;
19985;SDS011;10154;52.474;10.768;2023-06-10T09:51:56;6.55;;;3.70;;
19985;SDS011;10154;52.474;10.768;2023-06-10T09:54:22;3.72;;;3.15;;
19985;SDS011;10154;52.474;10.768;2023-06-10T09:56:48;8.98;;;4.60;;
19985;SDS011;10154;52.474;10.768;2023-06-10T09:59:14;11.70;;;4.88;;
19985;SDS011;10154;52.474;10.768;2023-06-10T10:01:40;9.25;;;4.72;;
19985;SDS011;10154;52.474;10.768;2023-06-10T10:04:06;6.22;;;4.55;;
19985;SDS011;10154;52.474;10.768;2023-06-10T10:06:31;7.25;;;4.15;;
19985;SDS011;10154;52.474;10.768;2023-06-10T10:08:57;8.23;;;4.18;;
19985;SDS011;10154;52.474;10.768;2023-06-10T10:11:23;7.85;;;5.00;;
19985;SDS011;10154;52.474;10.768;2023-06-10T10:13:52;9.18;;;5.07;;
19985;SDS011;10154;52.474;10.768;2023-06-10T10:16:36;9.30;;;4.78;;
19985;SDS011;10154;52.474;10.768;2023-06-10T10:19:23;7.18;;;4.30;;
19985;SDS011;10154;52.474;10.768;2023-06-10T10:21:53;8.50;;;5.65;;
19985;SDS011;10154;52.474;10.768;2023-06-10T10:24:23;6.45;;;4.40;;
19985;SDS011;10154;52.474;10.768;2023-06-10T10:26:50;5.20;;;4.07;;
19985;SDS011;10154;52.474;10.768;2023-06-10T10:29:18;11.38;;;5.00;;
19985;SDS011;10154;52.474;10.768;2023-06-10T10:31:46;5.97;;;3.83;;
19985;SDS011;10154;52.474;10.768;2023-06-10T10:34:19;8.13;;;5.30;;
19985;SDS011;10154;52.474;10.768;2023-06-10T10:36:47;7.85;;;5.15;;
19985;SDS011;10154;52.474;10.768;2023-06-10T10:39:13;10.02;;;5.30;;
19985;SDS011;10154;52.474;10.768;2023-06-10T10:41:38;7.50;;;5.15;;
19985;SDS011;10154;52.474;10.768;2023-06-10T10:44:05;8.23;;;5.00;;
19985;SDS011;10154;52.474;10.768;2023-06-10T10:46:41;6.68;;;4.63;;
19985;SDS011;10154;52.474;10.768;2023-06-10T10:49:10;8.15;;;5.93;;
19985;SDS011;10154;52.474;10.768;2023-06-10T10:51:37;15.15;;;6.03;;
19985;SDS011;10154;52.474;10.768;2023-06-10T10:56:38;14.35;;;8.32;;
19985;SDS011;10154;52.474;10.768;2023-06-10T10:59:03;7.95;;;5.50;;
19985;SDS011;10154;52.474;10.768;2023-06-10T11:01:39;21.48;;;13.15;;
19985;SDS011;10154;52.474;10.768;2023-06-10T11:04:06;13.80;;;6.90;;
19985;SDS011;10154;52.474;10.768;2023-06-10T11:06:33;10.05;;;6.57;;
19985;SDS011;10154;52.474;10.768;2023-06-10T11:08:58;13.45;;;8.35;;
19985;SDS011;10154;52.474;10.768;2023-06-10T11:11:25;9.02;;;6.30;;
19985;SDS011;10154;52.474;10.768;2023-06-10T11:16:27;7.25;;;5.10;;
19985;SDS011;10154;52.474;10.768;2023-06-10T11:18:53;10.00;;;6.35;;
19985;SDS011;10154;52.474;10.768;2023-06-10T11:21:19;10.68;;;5.70;;
19985;SDS011;10154;52.474;10.768;2023-06-10T11:23:45;13.82;;;6.53;;
19985;SDS011;10154;52.474;10.768;2023-06-10T11:28:39;13.30;;;6.63;;
19985;SDS011;10154;52.474;10.768;2023-06-10T11:31:04;9.45;;;5.50;;
19985;SDS011;10154;52.474;10.768;2023-06-10T11:33:30;7.90;;;5.60;;
19985;SDS011;10154;52.474;10.768;2023-06-10T11:35:56;9.68;;;5.25;;
19985;SDS011;10154;52.474;10.768;2023-06-10T11:38:23;11.85;;;5.93;;
19985;SDS011;10154;52.474;10.768;2023-06-10T11:40:48;6.95;;;5.32;;
19985;SDS011;10154;52.474;10.768;2023-06-10T11:43:15;13.43;;;6.03;;
19985;SDS011;10154;52.474;10.768;2023-06-10T11:45:42;12.52;;;6.25;;
19985;SDS011;10154;52.474;10.768;2023-06-10T11:48:09;11.75;;;6.35;;
19985;SDS011;10154;52.474;10.768;2023-06-10T11:50:34;10.20;;;6.50;;
19985;SDS011;10154;52.474;10.768;2023-06-10T11:53:00;9.75;;;5.70;;
19985;SDS011;10154;52.474;10.768;2023-06-10T11:55:40;12.82;;;5.90;;
19985;SDS011;10154;52.474;10.768;2023-06-10T11:58:19;8.63;;;5.60;;
19985;SDS011;10154;52.474;10.768;2023-06-10T12:00:49;10.13;;;5.68;;
19985;SDS011;10154;52.474;10.768;2023-06-10T12:03:15;9.18;;;5.85;;
19985;SDS011;10154;52.474;10.768;2023-06-10T12:06:01;8.30;;;5.80;;
19985;SDS011;10154;52.474;10.768;2023-06-10T12:08:28;12.55;;;5.82;;
19985;SDS011;10154;52.474;10.768;2023-06-10T12:10:54;11.18;;;6.07;;
19985;SDS011;10154;52.474;10.768;2023-06-10T12:13:20;8.90;;;5.93;;
19985;SDS011;10154;52.474;10.768;2023-06-10T12:15:46;13.98;;;6.75;;
19985;SDS011;10154;52.474;10.768;2023-06-10T12:20:43;11.70;;;5.90;;
19985;SDS011;10154;52.474;10.768;2023-06-10T12:23:09;12.27;;;6.55;;
19985;SDS011;10154;52.474;10.768;2023-06-10T12:25:35;8.60;;;5.93;;
19985;SDS011;10154;52.474;10.768;2023-06-10T12:28:04;7.85;;;5.70;;
19985;SDS011;10154;52.474;10.768;2023-06-10T12:30:30;10.20;;;5.97;;
19985;SDS011;10154;52.474;10.768;2023-06-10T12:32:57;11.48;;;6.20;;
19985;SDS011;10154;52.474;10.768;2023-06-10T12:35:23;29.70;;;8.13;;
19985;SDS011;10154;52.474;10.768;2023-06-10T12:42:54;13.38;;;6.43;;
19985;SDS011;10154;52.474;10.768;2023-06-10T12:45:27;9.98;;;6.40;;
19985;SDS011;10154;52.474;10.768;2023-06-10T12:48:07;8.57;;;6.22;;
19985;SDS011;10154;52.474;10.768;2023-06-10T12:50:35;10.48;;;6.10;;
19985;SDS011;10154;52.474;10.768;2023-06-10T12:53:02;10.68;;;6.10;;
19985;SDS011;10154;52.474;10.768;2023-06-10T12:55:28;11.52;;;5.82;;
19985;SDS011;10154;52.474;10.768;2023-06-10T12:57:53;11.55;;;6.05;;
19985;SDS011;10154;52.474;10.768;2023-06-10T13:00:20;9.10;;;6.13;;
19985;SDS011;10154;52.474;10.768;2023-06-10T13:02:45;11.80;;;6.40;;
19985;SDS011;10154;52.474;10.768;2023-06-10T13:05:11;8.45;;;6.00;;
19985;SDS011;10154;52.474;10.768;2023-06-10T13:07:37;5.93;;;5.20;;
19985;SDS011;10154;52.474;10.768;2023-06-10T13:10:02;8.57;;;5.32;;
19985;SDS011;10154;52.474;10.768;2023-06-10T13:12:27;7.45;;;6.18;;
19985;SDS011;10154;52.474;10.768;2023-06-10T13:14:54;9.02;;;5.88;;
19985;SDS011;10154;52.474;10.768;2023-06-10T13:17:20;12.63;;;6.25;;
19985;SDS011;10154;52.474;10.768;2023-06-10T13:19:45;9.07;;;6.35;;
19985;SDS011;10154;52.474;10.768;2023-06-10T13:22:11;11.27;;;5.80;;
19985;SDS011;10154;52.474;10.768;2023-06-10T13:24:38;7.53;;;5.18;;
19985;SDS011;10154;52.474;10.768;2023-06-10T13:27:04;8.65;;;5.53;;
19985;SDS011;10154;52.474;10.768;2023-06-10T13:29:31;11.13;;;6.00;;
19985;SDS011;10154;52.474;10.768;2023-06-10T13:31:57;7.18;;;5.60;;
19985;SDS011;10154;52.474;10.768;2023-06-10T13:34:22;8.07;;;5.40;;
19985;SDS011;10154;52.474;10.768;2023-06-10T13:36:47;13.35;;;6.60;;
19985;SDS011;10154;52.474;10.768;2023-06-10T13:39:13;8.98;;;6.53;;
19985;SDS011;10154;52.474;10.768;2023-06-10T13:41:40;12.30;;;6.35;;
19985;SDS011;10154;52.474;10.768;2023-06-10T13:44:06;6.97;;;5.20;;
19985;SDS011;10154;52.474;10.768;2023-06-10T13:46:31;7.70;;;5.32;;
19985;SDS011;10154;52.474;10.768;2023-06-10T13:48:57;5.80;;;5.15;;
19985;SDS011;10154;52.474;10.768;2023-06-10T13:51:22;6.30;;;5.35;;
19985;SDS011;10154;52.474;10.768;2023-06-10T13:53:48;8.77;;;6.15;;
19985;SDS011;10154;52.474;10.768;2023-06-10T13:56:13;8.57;;;5.47;;
19985;SDS011;10154;52.474;10.768;2023-06-10T13:58:39;9.38;;;5.45;;
19985;SDS011;10154;52.474;10.768;2023-06-10T14:01:06;9.20;;;5.88;;
19985;SDS011;10154;52.474;10.768;2023-06-10T14:03:31;11.25;;;5.68;;
19985;SDS011;10154;52.474;10.768;2023-06-10T14:05:57;5.65;;;4.95;;
19985;SDS011;10154;52.474;10.768;2023-06-10T14:08:23;10.10;;;5.97;;
19985;SDS011;10154;52.474;10.768;2023-06-10T14:10:48;8.90;;;6.35;;
19985;SDS011;10154;52.474;10.768;2023-06-10T14:13:15;13.25;;;6.57;;
19985;SDS011;10154;52.474;10.768;2023-06-10T14:15:41;6.63;;;5.35;;
19985;SDS011;10154;52.474;10.768;2023-06-10T14:18:06;6.95;;;5.22;;
19985;SDS011;10154;52.474;10.768;2023-06-10T14:20:31;7.40;;;5.60;;
19985;SDS011;10154;52.474;10.768;2023-06-10T14:22:57;8.18;;;5.90;;
19985;SDS011;10154;52.474;10.768;2023-06-10T14:25:23;12.27;;;6.03;;
19985;SDS011;10154;52.474;10.768;2023-06-10T14:27:49;7.28;;;5.85;;
19985;SDS011;10154;52.474;10.768;2023-06-10T14:30:14;8.13;;;6.13;;
19985;SDS011;10154;52.474;10.768;2023-06-10T14:32:40;8.88;;;5.68;;
19985;SDS011;10154;52.474;10.768;2023-06-10T14:35:06;8.43;;;5.88;;
19985;SDS011;10154;52.474;10.768;2023-06-10T14:37:32;8.63;;;5.80;;
19985;SDS011;10154;52.474;10.768;2023-06-10T14:39:57;13.38;;;5.60;;
19985;SDS011;10154;52.474;10.768;2023-06-10T14:42:22;7.70;;;5.22;;
19985;SDS011;10154;52.474;10.768;2023-06-10T14:44:48;8.45;;;5.82;;
19985;SDS011;10154;52.474;10.768;2023-06-10T14:47:14;11.43;;;5.78;;
19985;SDS011;10154;52.474;10.768;2023-06-10T14:49:40;9.07;;;5.32;;